createdAt,value
2023-04-13T00:06:24.744Z,2.17
2023-04-13T00:16:31.451Z,2.20
2023-04-13T00:26:34.281Z,3.00
2023-04-13T00:36:38.766Z,3.13
2023-04-13T00:46:42.376Z,3.55
2023-04-13T00:56:46.707Z,3.28
2023-04-13T01:06:57.812Z,3.20
2023-04-13T01:27:11.412Z,3.33
2023-04-13T01:37:17.377Z,3.63
2023-04-13T01:47:23.760Z,3.28
2023-04-13T01:57:31.096Z,3.70
2023-04-13T02:07:34.622Z,3.53
2023-04-13T02:17:39.254Z,4.18
2023-04-13T02:27:42.886Z,3.08
2023-04-13T02:37:46.960Z,2.83
2023-04-13T02:47:49.653Z,2.78
2023-04-13T02:57:54.058Z,2.15
2023-04-13T03:07:56.960Z,2.08
2023-04-13T03:18:01.038Z,2.42
2023-04-13T03:28:03.861Z,2.75
2023-04-13T03:38:07.987Z,2.00
2023-04-13T03:48:10.931Z,2.15
2023-04-13T03:58:15.005Z,2.60
2023-04-13T04:08:17.740Z,2.78
2023-04-13T04:18:22.111Z,2.70
2023-04-13T04:28:24.821Z,2.10
2023-04-13T04:38:30.419Z,2.65
2023-04-13T04:48:33.578Z,3.72
2023-04-13T04:58:37.534Z,3.35
2023-04-13T05:08:40.246Z,4.00
2023-04-13T05:18:48.201Z,2.92
2023-04-13T05:28:51.942Z,3.15
2023-04-13T05:38:56.938Z,2.65
2023-04-13T05:49:01.654Z,2.92
2023-04-13T05:59:05.876Z,2.20
2023-04-13T06:09:08.754Z,2.33
2023-04-13T06:19:13.061Z,2.13
2023-04-13T06:29:16.076Z,2.00
2023-04-13T06:39:20.050Z,2.08
2023-04-13T06:49:22.759Z,1.88
2023-04-13T06:59:27.138Z,2.60
2023-04-13T07:09:29.799Z,2.72
2023-04-13T07:19:34.980Z,2.67
2023-04-13T07:29:37.651Z,2.75
2023-04-13T07:39:43.117Z,3.10
2023-04-13T07:49:45.795Z,3.25
2023-04-13T07:59:49.789Z,2.67
2023-04-13T08:09:53.511Z,2.13
2023-04-13T08:19:57.548Z,2.00
2023-04-13T08:30:02.132Z,2.22
2023-04-13T08:40:08.142Z,2.10
2023-04-13T08:50:12.176Z,2.35
2023-04-13T09:00:19.418Z,2.00
2023-04-13T09:10:22.327Z,1.70
2023-04-13T09:20:26.340Z,2.80
2023-04-13T09:30:28.997Z,1.23
2023-04-13T09:40:33.612Z,1.35
2023-04-13T09:50:36.942Z,1.90
2023-04-13T10:00:43.138Z,1.90
2023-04-13T10:10:47.349Z,1.80
2023-04-13T10:20:54.043Z,1.77
2023-04-13T10:30:56.835Z,1.55
2023-04-13T10:41:01.140Z,1.10
2023-04-13T10:51:04.338Z,0.75
2023-04-13T11:01:08.414Z,0.70
2023-04-13T11:11:14.792Z,0.65
2023-04-13T11:21:19.246Z,0.63
2023-04-13T11:31:21.956Z,0.68
2023-04-13T11:41:27.202Z,0.80
2023-04-13T11:51:31.062Z,0.90
2023-04-13T12:01:36.008Z,1.00
2023-04-13T12:11:44.734Z,1.02
2023-04-13T12:21:56.473Z,0.80
2023-04-13T12:32:01.892Z,1.00
2023-04-13T12:42:06.086Z,1.42
2023-04-13T12:52:08.769Z,0.82
2023-04-13T13:02:12.841Z,1.00
2023-04-13T13:12:15.899Z,1.15
2023-04-13T13:22:20.509Z,0.90
2023-04-13T13:32:23.361Z,1.38
2023-04-13T13:42:32.467Z,1.50
2023-04-13T13:52:51.882Z,1.30
2023-04-13T14:03:03.814Z,1.27
2023-04-13T14:13:06.605Z,1.20
2023-04-13T14:23:10.866Z,1.00
2023-04-13T14:33:14.653Z,1.42
2023-04-13T14:43:18.798Z,0.80
2023-04-13T14:53:21.739Z,1.38
2023-04-13T15:03:26.576Z,1.20
2023-04-13T15:13:29.383Z,1.38
2023-04-13T15:23:34.092Z,1.95
2023-04-13T15:33:37.890Z,1.50
2023-04-13T15:43:43.888Z,0.80
2023-04-13T15:53:46.514Z,1.10
2023-04-13T16:03:50.941Z,1.48
2023-04-13T16:13:53.731Z,1.40
2023-04-13T16:23:57.705Z,1.00
2023-04-13T16:34:00.396Z,1.00
2023-04-13T16:44:04.825Z,1.40
2023-04-13T16:54:07.536Z,1.23
2023-04-13T17:04:12.053Z,1.60
2023-04-13T17:14:14.788Z,1.23
2023-04-13T17:24:18.804Z,1.25
2023-04-13T17:34:21.430Z,0.93
2023-04-13T17:44:25.492Z,1.33
2023-04-13T17:54:28.385Z,1.20
2023-04-13T18:04:32.594Z,1.90
2023-04-13T18:14:35.618Z,2.00
2023-04-13T18:24:40.175Z,1.40
2023-04-13T18:34:43.976Z,1.75
2023-04-13T18:44:48.225Z,3.30
2023-04-13T18:54:51.171Z,2.55
2023-04-13T19:04:55.328Z,2.97
2023-04-13T19:14:58.057Z,2.17
2023-04-13T19:25:02.115Z,2.13
2023-04-13T19:35:05.618Z,2.17
2023-04-13T19:45:10.467Z,2.40
2023-04-13T19:55:13.413Z,1.70
2023-04-13T20:05:18.579Z,2.92
2023-04-13T20:15:21.358Z,3.35
2023-04-13T20:25:25.445Z,3.80
2023-04-13T20:35:28.290Z,3.50
2023-04-13T20:45:32.274Z,3.17
2023-04-13T20:55:34.935Z,3.72
2023-04-13T21:05:39.289Z,5.15
2023-04-13T21:15:41.939Z,4.47
2023-04-13T21:25:47.545Z,5.22
2023-04-13T21:35:50.411Z,3.42
2023-04-13T21:45:55.377Z,3.13
2023-04-13T21:55:58.036Z,3.20
2023-04-13T22:06:02.045Z,3.38
2023-04-13T22:16:05.052Z,3.80
2023-04-13T22:26:09.078Z,3.13
2023-04-13T22:36:19.386Z,3.53
2023-04-13T22:46:23.853Z,2.70
2023-04-13T22:56:26.931Z,3.22
2023-04-13T23:06:30.987Z,2.92
2023-04-13T23:16:33.940Z,3.75
2023-04-13T23:26:38.252Z,4.18
2023-04-13T23:36:41.095Z,4.35
2023-04-13T23:46:45.511Z,4.40
2023-04-13T23:56:48.143Z,4.20
